Time;durP1;ratioP1;P1;durP2;ratioP2;P2;SDS_P1;SDS_P2;PMS_P1;PMS_P2;Temp;Humidity;BMP_temperature;BMP_pressure;BME280_temperature;BME280_humidity;BME280_pressure;Samples;Min_cycle;Max_cycle;Signal;HPM_P1;HPM_P2
2023/04/04 00:01:39;;;;;;;;;;;1.50;99.90;;;;;;4998744;28;207192;-69
2023/04/04 00:04:05;;;;;;;;;;;1.50;99.90;;;;;;5061693;28;20619;-69
2023/04/04 00:06:31;;;;;;;;;;;1.50;99.90;;;;;;5000241;28;207135;-69
2023/04/04 00:08:57;;;;;;;;;;;1.40;99.90;;;;;;5064129;28;19932;-69
2023/04/04 00:11:23;;;;;;;;;;;1.40;99.90;;;;;;5014761;28;181555;-69
2023/04/04 00:13:49;;;;;;;;;;;1.40;99.90;;;;;;5065471;28;19977;-68
2023/04/04 00:16:15;;;;;;;;;;;1.30;99.90;;;;;;5018613;28;212191;-68
2023/04/04 00:18:41;;;;;;;;;;;1.30;99.90;;;;;;5058933;28;20513;-71
2023/04/04 00:21:07;;;;;;;;;;;1.30;99.90;;;;;;5009668;28;209838;-68
2023/04/04 00:23:33;;;;;;;;;;;1.20;99.90;;;;;;5064498;28;19979;-68
2023/04/04 00:25:59;;;;;;;;;;;1.20;99.90;;;;;;5015209;28;207231;-68
2023/04/04 00:28:25;;;;;;;;;;;1.20;99.90;;;;;;5070371;28;20019;-68
2023/04/04 00:30:51;;;;;;;;;;;1.20;99.90;;;;;;5014734;28;208914;-67
2023/04/04 00:33:17;;;;;;;;;;;1.10;99.90;;;;;;5059361;28;21138;-68
2023/04/04 00:35:43;;;;;;;;;;;1.10;99.90;;;;;;5000300;28;210027;-68
2023/04/04 00:38:09;;;;;;;;;;;1.10;99.90;;;;;;5063983;28;20307;-69
2023/04/04 00:40:42;;;;;;;;;;;1.10;99.90;;;;;;4992405;28;207570;-68
2023/04/04 00:43:08;;;;;;;;;;;1.00;99.90;;;;;;5053112;28;19963;-69
2023/04/04 00:45:34;;;;;;;;;;;1.00;99.90;;;;;;5005872;28;229068;-67
2023/04/04 00:48:01;;;;;;;;;;;1.00;99.90;;;;;;5059590;28;19974;-67
2023/04/04 00:50:27;;;;;;;;;;;0.90;99.90;;;;;;5006495;28;214171;-69
2023/04/04 00:52:53;;;;;;;;;;;1.00;99.90;;;;;;5072311;28;19932;-70
2023/04/04 00:55:19;;;;;;;;;;;1.00;99.90;;;;;;5009372;28;209531;-68
2023/04/04 00:57:45;;;;;;;;;;;1.00;99.90;;;;;;5073303;28;20016;-68
2023/04/04 01:00:12;;;;;;;;;;;0.90;99.90;;;;;;5010262;28;209667;-69
2023/04/04 01:02:38;;;;;;;;;;;0.90;99.90;;;;;;5065560;28;19928;-69
2023/04/04 01:05:05;;;;;;;;;;;0.80;99.90;;;;;;4987747;28;207232;-71
2023/04/04 01:07:31;;;;;;;;;;;0.80;99.90;;;;;;5054801;28;19928;-68
2023/04/04 01:09:57;;;;;;;;;;;0.80;99.90;;;;;;5008130;28;207959;-68
2023/04/04 01:12:23;;;;;;;;;;;0.80;99.90;;;;;;5055786;28;20020;-69
2023/04/04 01:14:50;;;;;;;;;;;0.80;99.90;;;;;;5004545;28;213302;-68
2023/04/04 01:17:16;;;;;;;;;;;0.80;99.90;;;;;;5070693;28;19927;-68
2023/04/04 01:19:41;;;;;;;;;;;0.80;99.90;;;;;;5002196;28;207027;-68
2023/04/04 01:22:08;;;;;;;;;;;0.80;99.90;;;;;;5042429;28;19974;-68
2023/04/04 01:24:34;;;;;;;;;;;0.80;99.90;;;;;;5045916;28;206377;-67
2023/04/04 01:27:00;;;;;;;;;;;0.80;99.90;;;;;;5022335;28;207373;-69
2023/04/04 01:29:26;;;;;;;;;;;0.70;99.90;;;;;;5075342;28;20305;-68
2023/04/04 01:31:58;;;;;;;;;;;0.70;99.90;;;;;;5016542;28;205644;-68
2023/04/04 01:34:31;;;;;;;;;;;0.70;99.90;;;;;;5064547;28;20308;-69
2023/04/04 01:37:02;;;;;;;;;;;0.70;99.90;;;;;;4996397;28;218806;-69
2023/04/04 01:39:43;;;;;;;;;;;0.70;99.90;;;;;;5059293;28;19928;-68
2023/04/04 01:42:11;;;;;;;;;;;0.70;99.90;;;;;;4980554;28;20610;-68
2023/04/04 01:44:37;;;;;;;;;;;0.60;99.90;;;;;;5041117;28;225951;-69
2023/04/04 01:47:09;;;;;;;;;;;0.60;99.90;;;;;;5005356;28;218954;-68
2023/04/04 01:49:35;;;;;;;;;;;0.60;99.90;;;;;;5036492;28;223928;-68
2023/04/04 01:52:02;;;;;;;;;;;0.60;99.90;;;;;;5055198;28;44153;-70
2023/04/04 01:54:28;;;;;;;;;;;0.60;99.90;;;;;;5087007;28;19932;-69
2023/04/04 01:56:54;;;;;;;;;;;0.60;99.90;;;;;;5021077;28;211908;-68
2023/04/04 01:59:20;;;;;;;;;;;0.50;99.90;;;;;;5067744;28;19969;-67
2023/04/04 02:01:46;;;;;;;;;;;0.50;99.90;;;;;;5003019;28;208900;-69
2023/04/04 02:04:13;;;;;;;;;;;0.50;99.90;;;;;;5062074;28;20496;-70
2023/04/04 02:06:39;;;;;;;;;;;0.50;99.90;;;;;;4976996;28;236872;-69
2023/04/04 02:09:05;;;;;;;;;;;0.50;99.90;;;;;;5061281;28;19943;-69
2023/04/04 02:11:31;;;;;;;;;;;0.50;99.90;;;;;;5010185;28;207449;-69
2023/04/04 02:13:57;;;;;;;;;;;0.40;99.90;;;;;;5058870;28;19932;-69
2023/04/04 02:16:23;;;;;;;;;;;0.40;99.90;;;;;;5017953;28;208867;-69
2023/04/04 02:18:49;;;;;;;;;;;0.40;99.90;;;;;;5060614;28;19936;-67
2023/04/04 02:21:15;;;;;;;;;;;0.40;99.90;;;;;;5013098;28;209312;-67
2023/04/04 02:23:41;;;;;;;;;;;0.40;99.90;;;;;;5060624;28;19946;-67
2023/04/04 02:26:06;;;;;;;;;;;0.40;99.90;;;;;;5004862;28;211721;-68
2023/04/04 02:28:32;;;;;;;;;;;0.30;99.90;;;;;;5061262;28;19927;-68
2023/04/04 02:31:00;;;;;;;;;;;0.30;99.90;;;;;;5009500;28;207198;-69
2023/04/04 02:33:27;;;;;;;;;;;0.30;99.90;;;;;;5060946;28;19935;-68
2023/04/04 02:35:57;;;;;;;;;;;0.30;99.90;;;;;;4981049;28;209349;-68
2023/04/04 02:38:23;;;;;;;;;;;0.30;99.90;;;;;;5052423;28;19921;-68
2023/04/04 02:40:49;;;;;;;;;;;0.20;99.90;;;;;;5014183;28;200659;-68
2023/04/04 02:43:15;;;;;;;;;;;0.20;99.90;;;;;;5070936;28;19928;-68
2023/04/04 02:45:41;;;;;;;;;;;0.20;99.90;;;;;;5010763;28;210873;-67
2023/04/04 02:48:07;;;;;;;;;;;0.20;99.90;;;;;;5065611;28;19927;-71
2023/04/04 02:50:33;;;;;;;;;;;0.10;99.90;;;;;;5009696;28;207506;-69
2023/04/04 02:53:00;;;;;;;;;;;0.10;99.90;;;;;;5072174;28;20356;-69
2023/04/04 02:55:26;;;;;;;;;;;0.10;99.90;;;;;;5010548;28;209874;-69
2023/04/04 02:57:52;;;;;;;;;;;0.10;99.90;;;;;;5063540;28;19936;-69
2023/04/04 03:00:18;;;;;;;;;;;0.10;99.90;;;;;;5010175;28;213631;-68
2023/04/04 03:02:45;;;;;;;;;;;0.10;99.90;;;;;;5072957;28;19920;-68
2023/04/04 03:05:11;;;;;;;;;;;0.10;99.90;;;;;;4989894;28;208201;-70
2023/04/04 03:07:37;;;;;;;;;;;0.00;99.90;;;;;;5064699;28;19920;-69
2023/04/04 03:10:03;;;;;;;;;;;0.00;99.90;;;;;;5007275;28;207258;-70
2023/04/04 03:12:29;;;;;;;;;;;0.00;99.90;;;;;;5072321;28;19925;-69
2023/04/04 03:14:55;;;;;;;;;;;0.00;99.90;;;;;;5015580;28;215337;-70
2023/04/04 03:17:21;;;;;;;;;;;-0.10;99.90;;;;;;5076639;28;19920;-70
2023/04/04 03:19:46;;;;;;;;;;;-0.20;99.90;;;;;;5007888;28;208178;-69
2023/04/04 03:22:12;;;;;;;;;;;-0.20;99.90;;;;;;5076330;28;19921;-70
2023/04/04 03:24:38;;;;;;;;;;;-0.20;99.90;;;;;;5021080;28;212108;-70
2023/04/04 03:27:04;;;;;;;;;;;-0.20;99.90;;;;;;5050698;28;19928;-70
2023/04/04 03:29:31;;;;;;;;;;;-0.30;99.90;;;;;;5060315;28;19929;-68
2023/04/04 03:32:00;;;;;;;;;;;-0.30;99.90;;;;;;5007762;28;246904;-69
2023/04/04 03:34:26;;;;;;;;;;;-0.40;99.90;;;;;;5060982;28;19929;-69
2023/04/04 03:36:52;;;;;;;;;;;-0.40;99.90;;;;;;5013371;28;211382;-72
2023/04/04 03:39:19;;;;;;;;;;;-0.40;99.90;;;;;;5061748;28;19928;-70
2023/04/04 03:41:45;;;;;;;;;;;-0.50;99.90;;;;;;4998897;28;240324;-70
2023/04/04 03:44:10;;;;;;;;;;;-0.50;99.90;;;;;;5043938;28;19935;-70
2023/04/04 03:46:36;;;;;;;;;;;-0.60;99.90;;;;;;4993531;28;211217;-70
2023/04/04 03:49:02;;;;;;;;;;;-0.60;99.90;;;;;;5042981;28;19928;-70
2023/04/04 03:51:28;;;;;;;;;;;-0.60;99.90;;;;;;4998876;28;211270;-69
2023/04/04 03:53:55;;;;;;;;;;;-0.70;99.90;;;;;;5042978;28;19933;-70
2023/04/04 03:56:21;;;;;;;;;;;-0.70;99.90;;;;;;4991412;28;206626;-70
2023/04/04 03:58:47;;;;;;;;;;;-0.70;99.90;;;;;;5048378;28;19928;-70
2023/04/04 04:01:13;;;;;;;;;;;-0.70;99.90;;;;;;4993450;28;211594;-71
2023/04/04 04:03:39;;;;;;;;;;;-0.70;99.90;;;;;;5042375;28;19932;-71
2023/04/04 04:06:05;;;;;;;;;;;-0.80;99.90;;;;;;4971308;28;215835;-70
2023/04/04 04:08:31;;;;;;;;;;;-0.80;99.90;;;;;;5044741;28;20324;-70
2023/04/04 04:11:02;;;;;;;;;;;-0.80;99.90;;;;;;4987761;28;205349;-70
2023/04/04 04:13:28;;;;;;;;;;;-0.80;99.90;;;;;;5057356;28;19929;-70
2023/04/04 04:15:55;;;;;;;;;;;-0.80;99.90;;;;;;5027286;28;195048;-71
2023/04/04 04:18:21;;;;;;;;;;;-0.80;99.90;;;;;;5052454;28;19927;-69
2023/04/04 04:20:46;;;;;;;;;;;-0.80;99.90;;;;;;5009858;28;209870;-70
2023/04/04 04:23:15;;;;;;;;;;;-0.80;99.90;;;;;;5047599;28;19925;-69
2023/04/04 04:25:41;;;;;;;;;;;-0.80;99.90;;;;;;5001862;28;232342;-70
2023/04/04 04:28:07;;;;;;;;;;;-0.80;99.90;;;;;;5059604;28;19946;-70
2023/04/04 04:30:33;;;;;;;;;;;-0.80;99.90;;;;;;5007477;28;213729;-70
2023/04/04 04:32:59;;;;;;;;;;;-0.80;99.90;;;;;;5056189;28;20423;-70
2023/04/04 04:35:25;;;;;;;;;;;-0.80;99.90;;;;;;4997487;28;207349;-70
2023/04/04 04:37:51;;;;;;;;;;;-0.80;99.90;;;;;;5054725;28;19931;-69
2023/04/04 04:40:17;;;;;;;;;;;-0.80;99.90;;;;;;5021134;28;205506;-70
2023/04/04 04:42:45;;;;;;;;;;;-0.80;99.90;;;;;;5063538;28;19930;-70
2023/04/04 04:45:11;;;;;;;;;;;-0.80;99.90;;;;;;5013604;28;207242;-69
2023/04/04 04:47:37;;;;;;;;;;;-0.80;99.90;;;;;;5057331;28;19920;-70
2023/04/04 04:50:03;;;;;;;;;;;-0.80;99.90;;;;;;5011905;28;206579;-71
2023/04/04 04:52:30;;;;;;;;;;;-0.80;99.90;;;;;;5067535;28;19928;-71
2023/04/04 04:55:00;;;;;;;;;;;-0.90;99.90;;;;;;5002603;28;209115;-69
2023/04/04 04:57:26;;;;;;;;;;;-0.90;99.90;;;;;;5069050;28;19931;-69
2023/04/04 04:59:52;;;;;;;;;;;-1.00;99.90;;;;;;5008925;28;225062;-70
2023/04/04 05:02:18;;;;;;;;;;;-1.00;99.90;;;;;;5056095;28;19924;-69
2023/04/04 05:04:44;;;;;;;;;;;-1.00;99.90;;;;;;4984001;28;213418;-69
2023/04/04 05:07:11;;;;;;;;;;;-1.00;99.90;;;;;;5059604;28;19924;-69
2023/04/04 05:09:38;;;;;;;;;;;-1.00;99.90;;;;;;5032833;28;216502;-69
2023/04/04 05:12:04;;;;;;;;;;;-1.00;99.90;;;;;;5030879;28;205934;-74
2023/04/04 05:14:30;;;;;;;;;;;-1.00;99.90;;;;;;5059719;28;19940;-70
2023/04/04 05:16:56;;;;;;;;;;;-1.00;99.90;;;;;;5015224;28;200034;-69
2023/04/04 05:19:22;;;;;;;;;;;-1.00;99.90;;;;;;5063153;28;19921;-67
2023/04/04 05:21:47;;;;;;;;;;;-0.90;99.90;;;;;;4999791;28;207583;-70
2023/04/04 05:24:15;;;;;;;;;;;-0.80;99.90;;;;;;5068360;28;20381;-71
2023/04/04 05:26:41;;;;;;;;;;;-0.80;99.90;;;;;;5002466;28;203016;-69
2023/04/04 05:29:07;;;;;;;;;;;-0.80;99.90;;;;;;5064199;28;19921;-70
2023/04/04 05:31:33;;;;;;;;;;;-0.70;99.90;;;;;;5016836;28;208876;-69
2023/04/04 05:34:06;;;;;;;;;;;-0.60;99.90;;;;;;5074977;28;19925;-69
2023/04/04 05:36:33;;;;;;;;;;;-0.40;99.90;;;;;;5006409;28;212976;-70
2023/04/04 05:39:00;;;;;;;;;;;0.00;99.90;;;;;;5056107;28;19931;-69
2023/04/04 05:41:26;;;;;;;;;;;0.40;99.90;;;;;;5019136;28;217889;-69
2023/04/04 05:43:52;;;;;;;;;;;0.80;99.90;;;;;;5053093;28;19921;-71
2023/04/04 05:46:17;;;;;;;;;;;1.00;99.90;;;;;;5010370;28;207818;-70
2023/04/04 05:48:43;;;;;;;;;;;1.20;99.90;;;;;;5064570;28;19927;-69
2023/04/04 05:51:10;;;;;;;;;;;1.50;99.90;;;;;;5008639;28;209241;-70
2023/04/04 05:53:35;;;;;;;;;;;1.60;99.90;;;;;;5064854;28;20015;-72
2023/04/04 05:56:02;;;;;;;;;;;1.60;99.90;;;;;;5011030;28;208437;-70
2023/04/04 05:58:28;;;;;;;;;;;1.50;99.90;;;;;;5059943;28;19924;-70
2023/04/04 06:00:54;;;;;;;;;;;1.50;99.90;;;;;;5009335;28;210099;-69
2023/04/04 06:03:20;;;;;;;;;;;1.60;99.90;;;;;;5068671;28;19924;-67
2023/04/04 06:05:52;;;;;;;;;;;1.60;99.90;;;;;;4891922;28;2999254;-69
2023/04/04 06:08:18;;;;;;;;;;;1.60;99.90;;;;;;5059259;28;19964;-69
2023/04/04 06:10:44;;;;;;;;;;;1.60;99.90;;;;;;5010165;28;214422;-69
2023/04/04 06:13:10;;;;;;;;;;;1.60;99.90;;;;;;5061571;28;19970;-71
2023/04/04 06:15:36;;;;;;;;;;;1.70;99.90;;;;;;5018694;28;116742;-69
2023/04/04 06:18:02;;;;;;;;;;;1.80;99.90;;;;;;5076787;28;19920;-68
2023/04/04 06:20:28;;;;;;;;;;;1.90;99.90;;;;;;5011796;28;209419;-68
2023/04/04 06:22:54;;;;;;;;;;;1.90;99.90;;;;;;5071722;28;20024;-69
2023/04/04 06:25:20;;;;;;;;;;;2.00;99.90;;;;;;5020910;28;202613;-69
2023/04/04 06:27:46;;;;;;;;;;;2.30;99.90;;;;;;5068116;28;19921;-68
2023/04/04 06:30:13;;;;;;;;;;;2.90;99.90;;;;;;5001654;28;209449;-69
2023/04/04 06:32:39;;;;;;;;;;;3.60;99.90;;;;;;5053668;28;19943;-69
2023/04/04 06:35:05;;;;;;;;;;;4.30;99.90;;;;;;5005882;28;254296;-68
2023/04/04 06:37:31;;;;;;;;;;;4.70;99.90;;;;;;5058960;28;19924;-70
2023/04/04 06:39:57;;;;;;;;;;;5.30;99.90;;;;;;5005283;28;205736;-70
2023/04/04 06:42:23;;;;;;;;;;;5.70;99.90;;;;;;5066014;28;19992;-68
2023/04/04 06:44:49;;;;;;;;;;;6.10;99.90;;;;;;5020818;28;207488;-70
2023/04/04 06:47:15;;;;;;;;;;;6.50;99.90;;;;;;5076945;28;19934;-69
2023/04/04 06:49:41;;;;;;;;;;;7.00;99.90;;;;;;5002375;28;207504;-68
2023/04/04 06:52:07;;;;;;;;;;;7.20;99.90;;;;;;5039884;28;19920;-68
2023/04/04 06:54:33;;;;;;;;;;;7.40;99.90;;;;;;5053611;28;221998;-68
2023/04/04 06:56:58;;;;;;;;;;;7.60;99.90;;;;;;5027630;28;29143;-69
2023/04/04 06:59:24;;;;;;;;;;;7.80;99.90;;;;;;5064857;28;19926;-69
2023/04/04 07:01:50;;;;;;;;;;;8.20;99.90;;;;;;5023710;28;206785;-69
2023/04/04 07:04:19;;;;;;;;;;;8.40;99.90;;;;;;5057044;28;19985;-69
2023/04/04 07:06:45;;;;;;;;;;;8.60;99.90;;;;;;4989813;28;213663;-69
2023/04/04 07:09:11;;;;;;;;;;;8.70;98.70;;;;;;5064458;28;19948;-69
2023/04/04 07:11:37;;;;;;;;;;;8.80;98.70;;;;;;5000683;28;206475;-69
2023/04/04 07:14:03;;;;;;;;;;;9.10;97.80;;;;;;5062785;28;19924;-68
2023/04/04 07:16:30;;;;;;;;;;;9.40;98.80;;;;;;5020568;28;225637;-69
2023/04/04 07:18:56;;;;;;;;;;;9.80;98.00;;;;;;5057281;28;19928;-70
2023/04/04 07:21:23;;;;;;;;;;;9.70;96.20;;;;;;5008693;28;207906;-69
2023/04/04 07:23:49;;;;;;;;;;;9.80;96.60;;;;;;5067456;28;19931;-69
2023/04/04 07:26:15;;;;;;;;;;;9.90;95.70;;;;;;4999217;28;205233;-70
2023/04/04 07:28:41;;;;;;;;;;;10.20;96.40;;;;;;5054988;28;19924;-69
2023/04/04 07:31:07;;;;;;;;;;;10.50;96.70;;;;;;5018365;28;205824;-69
2023/04/04 07:33:33;;;;;;;;;;;10.80;96.70;;;;;;5069215;28;19920;-70
2023/04/04 07:36:00;;;;;;;;;;;10.90;95.80;;;;;;5020312;28;210403;-69
2023/04/04 07:38:26;;;;;;;;;;;11.10;95.70;;;;;;5063385;28;20302;-69
2023/04/04 07:40:52;;;;;;;;;;;11.20;94.70;;;;;;5023988;28;209366;-69
2023/04/04 07:43:18;;;;;;;;;;;11.30;94.60;;;;;;5068165;28;19970;-69
2023/04/04 07:45:45;;;;;;;;;;;11.50;94.20;;;;;;5012712;28;212118;-70
2023/04/04 07:48:10;;;;;;;;;;;11.40;93.10;;;;;;5062193;28;19920;-69
2023/04/04 07:50:36;;;;;;;;;;;11.30;92.50;;;;;;5002992;28;212106;-70
2023/04/04 07:53:02;;;;;;;;;;;11.50;93.70;;;;;;5064895;28;19924;-68
2023/04/04 07:55:28;;;;;;;;;;;11.50;92.40;;;;;;5008593;28;219266;-68
2023/04/04 07:57:54;;;;;;;;;;;11.70;93.00;;;;;;5061981;28;20300;-69
2023/04/04 08:00:20;;;;;;;;;;;11.80;93.00;;;;;;5027390;28;21727;-69
2023/04/04 08:02:53;;;;;;;;;;;12.30;93.00;;;;;;5060990;28;19927;-69
2023/04/04 08:05:19;;;;;;;;;;;12.60;93.10;;;;;;4986849;28;207259;-69
2023/04/04 08:07:46;;;;;;;;;;;13.00;93.90;;;;;;5061387;28;19921;-70
2023/04/04 08:10:12;;;;;;;;;;;13.20;92.50;;;;;;5001699;28;206667;-70
2023/04/04 08:12:38;;;;;;;;;;;13.40;92.60;;;;;;5058251;28;19928;-68
2023/04/04 08:15:04;;;;;;;;;;;13.60;92.60;;;;;;5013945;28;213299;-69
2023/04/04 08:17:30;;;;;;;;;;;13.90;92.10;;;;;;5078977;28;19927;-70
2023/04/04 08:19:56;;;;;;;;;;;14.10;92.20;;;;;;5007584;28;218896;-71
2023/04/04 08:22:22;;;;;;;;;;;14.30;92.20;;;;;;5073399;28;19936;-71
2023/04/04 08:24:48;;;;;;;;;;;14.50;90.10;;;;;;5007106;28;210471;-69
2023/04/04 08:27:14;;;;;;;;;;;14.60;91.10;;;;;;5050089;28;19944;-72
2023/04/04 08:29:40;;;;;;;;;;;14.80;89.50;;;;;;5014262;28;207284;-70
2023/04/04 08:32:06;;;;;;;;;;;14.70;90.40;;;;;;5072008;28;20393;-70
2023/04/04 08:34:33;;;;;;;;;;;14.60;85.50;;;;;;5055930;28;205507;-67
2023/04/04 08:36:59;;;;;;;;;;;14.80;90.60;;;;;;5038791;28;103019;-70
2023/04/04 08:39:26;;;;;;;;;;;15.20;88.00;;;;;;5064700;28;20338;-69
2023/04/04 08:41:56;;;;;;;;;;;15.30;85.40;;;;;;5018647;28;210223;-69
2023/04/04 08:44:23;;;;;;;;;;;14.90;83.10;;;;;;5067289;28;19929;-70
2023/04/04 08:46:50;;;;;;;;;;;15.30;87.90;;;;;;4999617;28;226606;-69
2023/04/04 08:49:17;;;;;;;;;;;15.80;84.10;;;;;;5066731;28;20296;-69
2023/04/04 08:51:44;;;;;;;;;;;16.20;86.90;;;;;;5007147;28;206574;-69
2023/04/04 08:54:11;;;;;;;;;;;16.60;87.90;;;;;;5060151;28;20369;-68
2023/04/04 08:56:37;;;;;;;;;;;16.80;84.90;;;;;;5018708;28;209771;-69
2023/04/04 08:59:03;;;;;;;;;;;16.90;80.00;;;;;;5060816;28;20606;-69
2023/04/04 09:01:29;;;;;;;;;;;16.70;80.80;;;;;;4999011;28;206321;-68
2023/04/04 09:03:55;;;;;;;;;;;16.90;84.10;;;;;;5066244;28;19924;-68
2023/04/04 09:06:22;;;;;;;;;;;17.40;83.60;;;;;;4993242;28;264031;-70
2023/04/04 09:08:50;;;;;;;;;;;17.80;82.40;;;;;;5073714;28;20389;-68
2023/04/04 09:11:18;;;;;;;;;;;17.70;78.00;;;;;;5015517;28;210531;-68
2023/04/04 09:13:44;;;;;;;;;;;17.20;78.20;;;;;;5066359;28;20420;-68
2023/04/04 09:16:11;;;;;;;;;;;17.40;81.70;;;;;;5021029;28;206284;-68
2023/04/04 09:18:37;;;;;;;;;;;17.80;80.20;;;;;;5076126;28;20389;-69
2023/04/04 09:21:10;;;;;;;;;;;17.70;78.60;;;;;;5006596;28;210303;-68
2023/04/04 09:23:36;;;;;;;;;;;18.00;79.20;;;;;;5065042;28;19925;-68
2023/04/04 09:26:02;;;;;;;;;;;18.20;78.90;;;;;;5017791;28;207444;-68
2023/04/04 09:28:28;;;;;;;;;;;17.90;76.60;;;;;;5066725;28;19924;-67
2023/04/04 09:30:54;;;;;;;;;;;18.10;76.80;;;;;;5019801;28;209395;-67
2023/04/04 09:33:22;;;;;;;;;;;18.40;74.20;;;;;;5068247;28;19924;-67
2023/04/04 09:35:56;;;;;;;;;;;18.60;77.10;;;;;;5008655;28;207516;-68
2023/04/04 09:38:22;;;;;;;;;;;18.40;75.10;;;;;;5066086;28;19925;-68
2023/04/04 09:40:48;;;;;;;;;;;18.90;75.00;;;;;;4997851;28;212433;-68
2023/04/04 09:43:15;;;;;;;;;;;18.80;74.00;;;;;;5055326;28;19928;-67
2023/04/04 09:45:43;;;;;;;;;;;18.80;73.20;;;;;;5014182;28;209751;-68
2023/04/04 09:48:09;;;;;;;;;;;18.60;73.30;;;;;;5065033;28;19936;-68
2023/04/04 09:50:36;;;;;;;;;;;18.80;70.00;;;;;;5002602;28;183375;-67
2023/04/04 09:53:02;;;;;;;;;;;18.70;70.80;;;;;;5053771;28;20333;-68
2023/04/04 09:55:31;;;;;;;;;;;18.70;72.00;;;;;;5015150;28;207153;-68
2023/04/04 09:57:57;;;;;;;;;;;18.80;68.10;;;;;;5060783;28;20016;-68
2023/04/04 10:00:27;;;;;;;;;;;19.20;70.00;;;;;;5015261;28;209053;-68
2023/04/04 10:02:57;;;;;;;;;;;18.40;66.00;;;;;;5064773;28;19925;-70
2023/04/04 10:05:23;;;;;;;;;;;17.80;66.70;;;;;;5006119;28;154476;-68
2023/04/04 10:07:49;;;;;;;;;;;18.20;69.90;;;;;;5055411;28;19931;-68
2023/04/04 10:10:15;;;;;;;;;;;19.10;68.80;;;;;;5001586;28;230802;-67
2023/04/04 10:12:44;;;;;;;;;;;19.20;67.30;;;;;;5054782;28;19924;-68
2023/04/04 10:15:10;;;;;;;;;;;19.50;68.30;;;;;;5001971;28;209850;-68
2023/04/04 10:17:37;;;;;;;;;;;18.80;66.00;;;;;;5051649;28;19931;-68
2023/04/04 10:20:07;;;;;;;;;;;18.90;64.70;;;;;;5012306;28;209920;-69
2023/04/04 10:22:37;;;;;;;;;;;18.80;66.00;;;;;;5077125;28;19920;-68
2023/04/04 10:25:04;;;;;;;;;;;19.00;63.50;;;;;;5005416;28;225421;-68
2023/04/04 10:27:31;;;;;;;;;;;17.30;63.70;;;;;;5075442;28;19920;-68
2023/04/04 10:29:58;;;;;;;;;;;17.20;66.70;;;;;;5008506;28;210552;-68
2023/04/04 10:32:49;;;;;;;;;;;18.00;69.80;;;;;;5070033;28;19924;-68
2023/04/04 10:35:17;;;;;;;;;;;18.60;67.90;;;;;;5012921;28;216208;-68
2023/04/04 10:37:46;;;;;;;;;;;18.00;65.70;;;;;;5065765;28;19927;-70
2023/04/04 10:40:16;;;;;;;;;;;18.20;67.40;;;;;;5006495;28;209744;-68
2023/04/04 10:42:43;;;;;;;;;;;17.40;65.50;;;;;;5055325;28;19928;-69
2023/04/04 10:45:09;;;;;;;;;;;17.10;66.70;;;;;;5013301;28;207086;-70
2023/04/04 10:47:36;;;;;;;;;;;17.60;66.10;;;;;;5062059;28;19920;-68
2023/04/04 10:50:05;;;;;;;;;;;16.30;63.50;;;;;;5016494;28;207715;-69
2023/04/04 10:52:32;;;;;;;;;;;16.50;64.40;;;;;;5062019;28;19931;-69
2023/04/04 10:54:59;;;;;;;;;;;16.30;66.00;;;;;;5009459;28;209160;-69
2023/04/04 10:57:27;;;;;;;;;;;16.20;66.00;;;;;;5072344;28;19920;-69
2023/04/04 11:00:07;;;;;;;;;;;16.00;65.00;;;;;;5016002;28;227459;-69
2023/04/04 11:02:45;;;;;;;;;;;15.90;64.40;;;;;;5077550;28;20317;-69
2023/04/04 11:05:14;;;;;;;;;;;16.10;67.70;;;;;;4998227;28;222609;-70
2023/04/04 11:07:40;;;;;;;;;;;16.60;66.50;;;;;;5043376;28;19926;-70
2023/04/04 11:10:13;;;;;;;;;;;16.90;67.70;;;;;;5014546;28;210654;-71
2023/04/04 11:12:44;;;;;;;;;;;16.80;67.40;;;;;;5067138;28;19924;-71
2023/04/04 11:15:11;;;;;;;;;;;16.40;66.20;;;;;;5004475;28;209669;-70
2023/04/04 11:17:56;;;;;;;;;;;16.10;65.40;;;;;;5067410;28;19951;-70
2023/04/04 11:20:29;;;;;;;;;;;16.10;66.80;;;;;;5009830;28;229322;-70
2023/04/04 11:23:07;;;;;;;;;;;16.60;68.80;;;;;;5064201;28;19955;-69
2023/04/04 11:25:35;;;;;;;;;;;17.00;66.20;;;;;;5009028;28;218357;-70
2023/04/04 11:28:05;;;;;;;;;;;17.20;67.60;;;;;;5033579;28;20392;-69
2023/04/04 11:30:36;;;;;;;;;;;16.50;64.50;;;;;;5006448;28;215295;-70
2023/04/04 11:33:03;;;;;;;;;;;16.50;66.30;;;;;;5057952;28;19928;-69
2023/04/04 11:35:29;;;;;;;;;;;16.30;65.20;;;;;;5010304;28;209480;-69
2023/04/04 11:37:55;;;;;;;;;;;15.80;65.70;;;;;;5068894;28;19929;-70
2023/04/04 11:40:32;;;;;;;;;;;15.20;63.90;;;;;;5004652;28;207280;-68
2023/04/04 11:43:02;;;;;;;;;;;15.70;66.70;;;;;;5053422;28;19940;-68
2023/04/04 11:45:29;;;;;;;;;;;15.90;65.60;;;;;;5012611;28;213400;-68
2023/04/04 11:47:56;;;;;;;;;;;16.00;65.40;;;;;;5065478;28;19924;-70
2023/04/04 11:50:22;;;;;;;;;;;16.60;68.50;;;;;;4999036;28;277993;-68
2023/04/04 11:52:48;;;;;;;;;;;16.10;66.10;;;;;;5062150;28;19968;-69
2023/04/04 11:55:16;;;;;;;;;;;15.60;64.10;;;;;;5012076;28;206902;-69
2023/04/04 11:57:42;;;;;;;;;;;16.30;64.90;;;;;;5065778;28;19940;-69
2023/04/04 12:00:08;;;;;;;;;;;16.10;62.80;;;;;;5006529;28;214126;-67
2023/04/04 12:02:34;;;;;;;;;;;16.00;63.30;;;;;;5059671;28;20397;-69
2023/04/04 12:05:00;;;;;;;;;;;15.80;63.20;;;;;;4991072;28;208288;-68
2023/04/04 12:07:27;;;;;;;;;;;16.30;65.50;;;;;;5056722;28;20006;-69
2023/04/04 12:09:54;;;;;;;;;;;16.90;65.00;;;;;;5000061;28;234545;-68
2023/04/04 12:12:20;;;;;;;;;;;17.20;63.50;;;;;;5064198;28;20007;-67
2023/04/04 12:14:47;;;;;;;;;;;17.70;63.40;;;;;;5010858;28;210514;-68
2023/04/04 12:17:14;;;;;;;;;;;17.60;63.00;;;;;;5059522;28;19926;-69
2023/04/04 12:19:42;;;;;;;;;;;17.50;62.00;;;;;;5008323;28;216744;-70
2023/04/04 12:22:08;;;;;;;;;;;17.00;61.10;;;;;;5077209;28;19921;-70
2023/04/04 12:24:35;;;;;;;;;;;16.70;62.90;;;;;;5049981;28;221119;-69
2023/04/04 12:27:04;;;;;;;;;;;16.40;60.60;;;;;;5006842;28;236576;-69
2023/04/04 12:29:37;;;;;;;;;;;16.30;62.30;;;;;;5061772;28;19929;-69
2023/04/04 12:32:04;;;;;;;;;;;16.10;63.70;;;;;;5012755;28;128391;-69
2023/04/04 12:34:34;;;;;;;;;;;16.40;65.10;;;;;;5066826;28;19935;-69
2023/04/04 12:37:01;;;;;;;;;;;16.30;63.40;;;;;;4997820;28;206218;-69
2023/04/04 12:39:28;;;;;;;;;;;16.50;63.30;;;;;;5061520;28;19928;-69
2023/04/04 12:41:56;;;;;;;;;;;16.00;62.50;;;;;;5020968;28;242836;-69
2023/04/04 12:44:41;;;;;;;;;;;16.50;65.00;;;;;;5062048;28;20385;-69
2023/04/04 12:47:09;;;;;;;;;;;16.80;64.30;;;;;;5006699;28;19921;-69
2023/04/04 12:49:43;;;;;;;;;;;17.60;66.60;;;;;;5029523;28;204489;-68
2023/04/04 12:52:19;;;;;;;;;;;17.50;62.70;;;;;;5010919;28;19921;-70
2023/04/04 12:54:45;;;;;;;;;;;18.10;65.70;;;;;;5004285;28;208972;-67
2023/04/04 12:57:17;;;;;;;;;;;18.00;64.20;;;;;;5081993;28;20357;-69
2023/04/04 12:59:46;;;;;;;;;;;18.20;62.60;;;;;;5015933;28;207892;-68
2023/04/04 13:02:13;;;;;;;;;;;18.30;61.90;;;;;;5062771;28;20479;-70
2023/04/04 13:04:39;;;;;;;;;;;18.50;61.50;;;;;;5016179;28;212161;-68
2023/04/04 13:07:21;;;;;;;;;;;19.20;64.00;;;;;;5037897;28;95906;-68
2023/04/04 13:09:52;;;;;;;;;;;18.80;60.60;;;;;;5006615;28;209740;-69
2023/04/04 13:12:20;;;;;;;;;;;18.40;58.70;;;;;;5058845;28;19924;-69
2023/04/04 13:14:58;;;;;;;;;;;17.70;58.40;;;;;;5007218;28;207561;-69
2023/04/04 13:17:25;;;;;;;;;;;17.50;60.00;;;;;;5060506;28;20024;-70
2023/04/04 13:19:51;;;;;;;;;;;17.40;59.50;;;;;;5001982;28;212028;-69
2023/04/04 13:22:17;;;;;;;;;;;17.80;60.50;;;;;;5057428;28;19932;-69
2023/04/04 13:24:43;;;;;;;;;;;17.90;60.50;;;;;;5005167;28;207880;-70
2023/04/04 13:27:09;;;;;;;;;;;17.20;59.10;;;;;;5077850;28;20434;-70
2023/04/04 13:29:35;;;;;;;;;;;16.60;58.30;;;;;;5047390;28;207452;-68
2023/04/04 13:32:02;;;;;;;;;;;17.40;61.10;;;;;;4991655;28;144874;-70
2023/04/04 13:34:28;;;;;;;;;;;17.40;62.00;;;;;;5077123;28;19924;-69
2023/04/04 13:36:55;;;;;;;;;;;17.60;61.30;;;;;;5001048;28;82215;-70
2023/04/04 13:39:21;;;;;;;;;;;17.70;59.90;;;;;;5062877;28;19928;-70
2023/04/04 13:41:47;;;;;;;;;;;17.30;57.70;;;;;;4992414;28;205641;-70
2023/04/04 13:44:13;;;;;;;;;;;17.70;62.60;;;;;;5067970;28;20230;-69
2023/04/04 13:46:39;;;;;;;;;;;18.00;60.80;;;;;;4997000;28;217467;-68
2023/04/04 13:49:05;;;;;;;;;;;18.10;59.40;;;;;;5063655;28;19928;-69
2023/04/04 13:51:31;;;;;;;;;;;16.80;57.90;;;;;;5019411;28;208771;-68
2023/04/04 13:53:57;;;;;;;;;;;16.40;60.50;;;;;;5067120;28;20414;-69
2023/04/04 13:56:23;;;;;;;;;;;16.80;61.70;;;;;;5023793;28;208014;-70
2023/04/04 13:58:49;;;;;;;;;;;17.20;63.00;;;;;;5060492;28;21807;-69
2023/04/04 14:01:15;;;;;;;;;;;17.30;61.20;;;;;;5008087;28;209712;-69
2023/04/04 14:03:41;;;;;;;;;;;17.20;60.30;;;;;;5052113;28;19924;-70
2023/04/04 14:06:07;;;;;;;;;;;17.20;61.70;;;;;;4978899;28;213682;-69
2023/04/04 14:08:33;;;;;;;;;;;17.40;60.70;;;;;;5044367;28;20083;-69
2023/04/04 14:10:59;;;;;;;;;;;17.30;60.60;;;;;;5019394;28;206772;-69
2023/04/04 14:13:25;;;;;;;;;;;16.40;59.40;;;;;;5054560;28;19939;-71
2023/04/04 14:15:51;;;;;;;;;;;16.40;64.00;;;;;;5009793;28;209419;-68